sensor_id;sensor_type;location;lat;lon;timestamp;temperature;humidity
40960;DHT22;27842;52.272;8.052;2024-01-15T06:24:37;2.10;99.90
40960;DHT22;27842;52.272;8.052;2024-01-15T06:27:12;2.10;99.90
40960;DHT22;27842;52.272;8.052;2024-01-15T06:29:38;2.10;99.90
40960;DHT22;27842;52.272;8.052;2024-01-15T06:32:04;2.10;99.90
40960;DHT22;27842;52.272;8.052;2024-01-15T06:34:30;2.10;99.90
40960;DHT22;27842;52.272;8.052;2024-01-15T06:36:56;2.10;99.90
40960;DHT22;27842;52.272;8.052;2024-01-15T06:39:21;2.00;99.90
40960;DHT22;27842;52.272;8.052;2024-01-15T06:41:47;2.10;99.90
40960;DHT22;27842;52.272;8.052;2024-01-15T06:44:13;2.10;99.90
40960;DHT22;27842;52.272;8.052;2024-01-15T07:31:20;2.10;99.90
40960;DHT22;27842;52.272;8.052;2024-01-15T07:33:46;2.10;99.90
40960;DHT22;27842;52.272;8.052;2024-01-15T07:36:12;2.10;99.90
40960;DHT22;27842;52.272;8.052;2024-01-15T07:38:38;2.10;99.90
40960;DHT22;27842;52.272;8.052;2024-01-15T07:41:03;2.10;99.90
40960;DHT22;27842;52.272;8.052;2024-01-15T07:43:29;2.10;99.90
40960;DHT22;27842;52.272;8.052;2024-01-15T07:45:55;2.10;99.90
40960;DHT22;27842;52.272;8.052;2024-01-15T07:48:20;2.10;99.90
40960;DHT22;27842;52.272;8.052;2024-01-15T07:50:46;2.10;99.90
40960;DHT22;27842;52.272;8.052;2024-01-15T07:53:11;2.10;99.90
40960;DHT22;27842;52.272;8.052;2024-01-15T07:55:37;2.10;99.90
40960;DHT22;27842;52.272;8.052;2024-01-15T07:58:03;2.10;99.90
40960;DHT22;27842;52.272;8.052;2024-01-15T08:04:39;2.10;99.90
40960;DHT22;27842;52.272;8.052;2024-01-15T08:07:05;2.10;99.90
40960;DHT22;27842;52.272;8.052;2024-01-15T08:09:32;2.10;99.90
40960;DHT22;27842;52.272;8.052;2024-01-15T08:11:58;2.10;99.90
40960;DHT22;27842;52.272;8.052;2024-01-15T08:14:24;2.10;99.90
40960;DHT22;27842;52.272;8.052;2024-01-15T08:16:49;2.10;99.90
40960;DHT22;27842;52.272;8.052;2024-01-15T08:19:16;2.10;99.90
40960;DHT22;27842;52.272;8.052;2024-01-15T08:21:42;2.10;99.90
40960;DHT22;27842;52.272;8.052;2024-01-15T08:24:08;2.10;99.90
40960;DHT22;27842;52.272;8.052;2024-01-15T08:26:34;2.00;99.90
40960;DHT22;27842;52.272;8.052;2024-01-15T08:29:00;2.10;99.90
40960;DHT22;27842;52.272;8.052;2024-01-15T08:31:25;2.10;99.90
40960;DHT22;27842;52.272;8.052;2024-01-15T08:33:53;2.00;99.90
40960;DHT22;27842;52.272;8.052;2024-01-15T08:36:21;2.00;99.90
40960;DHT22;27842;52.272;8.052;2024-01-15T08:38:55;2.00;99.90
40960;DHT22;27842;52.272;8.052;2024-01-15T08:41:20;2.10;99.90
40960;DHT22;27842;52.272;8.052;2024-01-15T09:04:15;2.00;99.90
40960;DHT22;27842;52.272;8.052;2024-01-15T09:06:57;2.00;99.90
40960;DHT22;27842;52.272;8.052;2024-01-15T09:09:25;2.00;99.90
40960;DHT22;27842;52.272;8.052;2024-01-15T09:11:51;2.00;99.90
40960;DHT22;27842;52.272;8.052;2024-01-15T09:14:17;2.00;99.90
40960;DHT22;27842;52.272;8.052;2024-01-15T09:16:43;2.00;99.90
40960;DHT22;27842;52.272;8.052;2024-01-15T09:19:08;2.00;99.90
40960;DHT22;27842;52.272;8.052;2024-01-15T09:21:34;2.00;99.90
40960;DHT22;27842;52.272;8.052;2024-01-15T09:23:59;2.00;99.90
40960;DHT22;27842;52.272;8.052;2024-01-15T09:26:25;2.00;99.90
40960;DHT22;27842;52.272;8.052;2024-01-15T09:28:51;2.00;99.90
40960;DHT22;27842;52.272;8.052;2024-01-15T09:31:17;2.00;99.90
40960;DHT22;27842;52.272;8.052;2024-01-15T09:33:43;2.00;99.90
40960;DHT22;27842;52.272;8.052;2024-01-15T09:36:09;2.10;99.90
40960;DHT22;27842;52.272;8.052;2024-01-15T09:38:35;2.10;99.90
40960;DHT22;27842;52.272;8.052;2024-01-15T09:41:00;2.10;99.90
40960;DHT22;27842;52.272;8.052;2024-01-15T09:43:26;2.10;99.90
40960;DHT22;27842;52.272;8.052;2024-01-15T09:45:53;2.10;99.90
40960;DHT22;27842;52.272;8.052;2024-01-15T09:48:19;2.10;99.90
40960;DHT22;27842;52.272;8.052;2024-01-15T09:50:45;2.10;99.90
40960;DHT22;27842;52.272;8.052;2024-01-15T09:53:11;2.20;99.90
40960;DHT22;27842;52.272;8.052;2024-01-15T09:55:39;2.20;99.90
40960;DHT22;27842;52.272;8.052;2024-01-15T09:58:05;2.20;99.90
40960;DHT22;27842;52.272;8.052;2024-01-15T10:00:31;2.20;99.90
40960;DHT22;27842;52.272;8.052;2024-01-15T10:02:58;2.20;99.90
40960;DHT22;27842;52.272;8.052;2024-01-15T10:05:26;2.20;99.90
40960;DHT22;27842;52.272;8.052;2024-01-15T10:07:51;2.20;99.90
40960;DHT22;27842;52.272;8.052;2024-01-15T10:10:18;2.30;99.90
40960;DHT22;27842;52.272;8.052;2024-01-15T10:12:46;2.30;99.90
40960;DHT22;27842;52.272;8.052;2024-01-15T10:15:13;2.30;99.90
40960;DHT22;27842;52.272;8.052;2024-01-15T10:17:40;2.30;99.90
40960;DHT22;27842;52.272;8.052;2024-01-15T10:20:12;2.40;99.90
40960;DHT22;27842;52.272;8.052;2024-01-15T10:22:42;2.40;99.90
40960;DHT22;27842;52.272;8.052;2024-01-15T10:25:14;2.40;99.90
40960;DHT22;27842;52.272;8.052;2024-01-15T10:27:43;2.40;99.90
40960;DHT22;27842;52.272;8.052;2024-01-15T10:30:10;2.40;99.90
40960;DHT22;27842;52.272;8.052;2024-01-15T10:33:01;2.40;99.90
40960;DHT22;27842;52.272;8.052;2024-01-15T11:38:50;2.80;99.90
40960;DHT22;27842;52.272;8.052;2024-01-15T11:45:30;2.70;99.90
40960;DHT22;27842;52.272;8.052;2024-01-15T11:48:14;2.70;99.90
40960;DHT22;27842;52.272;8.052;2024-01-15T11:50:49;2.80;99.90
40960;DHT22;27842;52.272;8.052;2024-01-15T11:56:02;2.80;99.90
40960;DHT22;27842;52.272;8.052;2024-01-15T11:58:29;2.80;99.90
40960;DHT22;27842;52.272;8.052;2024-01-15T12:00:55;2.80;99.90
40960;DHT22;27842;52.272;8.052;2024-01-15T12:03:22;2.80;99.90
40960;DHT22;27842;52.272;8.052;2024-01-15T12:05:48;2.80;99.90
40960;DHT22;27842;52.272;8.052;2024-01-15T12:08:13;2.80;99.90
40960;DHT22;27842;52.272;8.052;2024-01-15T12:10:42;2.80;99.90
40960;DHT22;27842;52.272;8.052;2024-01-15T12:13:11;2.80;99.90
40960;DHT22;27842;52.272;8.052;2024-01-15T12:15:38;2.80;99.90
40960;DHT22;27842;52.272;8.052;2024-01-15T12:18:07;2.80;99.90
40960;DHT22;27842;52.272;8.052;2024-01-15T12:20:33;2.70;99.90
40960;DHT22;27842;52.272;8.052;2024-01-15T12:23:00;2.80;99.90
40960;DHT22;27842;52.272;8.052;2024-01-15T12:25:26;2.80;99.90
40960;DHT22;27842;52.272;8.052;2024-01-15T12:27:53;2.70;99.90
40960;DHT22;27842;52.272;8.052;2024-01-15T12:30:39;2.70;99.90
40960;DHT22;27842;52.272;8.052;2024-01-15T12:34:04;2.70;99.90
40960;DHT22;27842;52.272;8.052;2024-01-15T12:40:25;2.70;99.90
40960;DHT22;27842;52.272;8.052;2024-01-15T12:42:51;2.80;99.90
40960;DHT22;27842;52.272;8.052;2024-01-15T12:45:17;2.80;99.90
40960;DHT22;27842;52.272;8.052;2024-01-15T12:47:43;2.80;99.90
40960;DHT22;27842;52.272;8.052;2024-01-15T12:56:58;2.80;99.90
40960;DHT22;27842;52.272;8.052;2024-01-15T12:59:23;2.80;99.90
40960;DHT22;27842;52.272;8.052;2024-01-15T13:01:49;2.80;99.90
40960;DHT22;27842;52.272;8.052;2024-01-15T13:04:22;2.80;99.90
40960;DHT22;27842;52.272;8.052;2024-01-15T13:06:52;2.80;99.90
40960;DHT22;27842;52.272;8.052;2024-01-15T13:09:18;2.80;99.90
40960;DHT22;27842;52.272;8.052;2024-01-15T13:11:45;2.80;99.90
40960;DHT22;27842;52.272;8.052;2024-01-15T13:14:11;2.80;99.90
40960;DHT22;27842;52.272;8.052;2024-01-15T13:16:36;2.80;99.90
40960;DHT22;27842;52.272;8.052;2024-01-15T13:19:02;2.80;99.90
40960;DHT22;27842;52.272;8.052;2024-01-15T13:21:29;2.80;99.90
40960;DHT22;27842;52.272;8.052;2024-01-15T13:23:55;2.80;99.90
40960;DHT22;27842;52.272;8.052;2024-01-15T13:26:21;2.80;99.90
40960;DHT22;27842;52.272;8.052;2024-01-15T13:28:47;2.80;99.90
40960;DHT22;27842;52.272;8.052;2024-01-15T13:31:13;2.80;99.90
40960;DHT22;27842;52.272;8.052;2024-01-15T13:33:38;2.80;99.90
40960;DHT22;27842;52.272;8.052;2024-01-15T13:36:05;2.80;99.90
40960;DHT22;27842;52.272;8.052;2024-01-15T14:33:15;2.40;99.90
40960;DHT22;27842;52.272;8.052;2024-01-15T14:35:42;2.40;99.90
40960;DHT22;27842;52.272;8.052;2024-01-15T14:38:08;2.40;99.90
40960;DHT22;27842;52.272;8.052;2024-01-15T14:47:00;2.40;99.90
40960;DHT22;27842;52.272;8.052;2024-01-15T14:49:26;2.40;99.90
40960;DHT22;27842;52.272;8.052;2024-01-15T14:51:52;2.40;99.90
40960;DHT22;27842;52.272;8.052;2024-01-15T14:54:17;2.40;99.90
40960;DHT22;27842;52.272;8.052;2024-01-15T14:56:43;2.40;99.90
40960;DHT22;27842;52.272;8.052;2024-01-15T14:59:09;2.40;99.90
40960;DHT22;27842;52.272;8.052;2024-01-15T15:15:34;2.40;99.90
40960;DHT22;27842;52.272;8.052;2024-01-15T15:18:49;2.40;99.90
40960;DHT22;27842;52.272;8.052;2024-01-15T15:21:15;2.40;99.90
40960;DHT22;27842;52.272;8.052;2024-01-15T15:23:40;2.40;99.90
40960;DHT22;27842;52.272;8.052;2024-01-15T15:26:06;2.40;99.90
40960;DHT22;27842;52.272;8.052;2024-01-15T15:28:32;2.30;99.90
40960;DHT22;27842;52.272;8.052;2024-01-15T15:31:02;2.30;99.90
40960;DHT22;27842;52.272;8.052;2024-01-15T15:33:27;2.40;99.90
40960;DHT22;27842;52.272;8.052;2024-01-15T15:35:53;2.40;99.90
40960;DHT22;27842;52.272;8.052;2024-01-15T15:38:20;2.30;99.90
40960;DHT22;27842;52.272;8.052;2024-01-15T15:40:45;2.30;99.90
40960;DHT22;27842;52.272;8.052;2024-01-15T15:43:11;2.30;99.90
40960;DHT22;27842;52.272;8.052;2024-01-15T15:45:36;2.30;99.90
40960;DHT22;27842;52.272;8.052;2024-01-15T15:48:02;2.30;99.90
40960;DHT22;27842;52.272;8.052;2024-01-15T15:50:28;2.30;99.90
40960;DHT22;27842;52.272;8.052;2024-01-15T15:53:25;2.30;99.90
40960;DHT22;27842;52.272;8.052;2024-01-15T15:57:00;2.30;99.90
40960;DHT22;27842;52.272;8.052;2024-01-15T16:00:22;2.30;99.90
40960;DHT22;27842;52.272;8.052;2024-01-15T16:03:33;2.30;99.90
40960;DHT22;27842;52.272;8.052;2024-01-15T16:05:59;2.40;99.90
40960;DHT22;27842;52.272;8.052;2024-01-15T16:08:25;2.30;99.90
40960;DHT22;27842;52.272;8.052;2024-01-15T16:11:00;2.30;99.90
40960;DHT22;27842;52.272;8.052;2024-01-15T16:13:26;2.30;99.90
40960;DHT22;27842;52.272;8.052;2024-01-15T16:15:51;2.30;99.90
40960;DHT22;27842;52.272;8.052;2024-01-15T16:18:17;2.30;99.90
40960;DHT22;27842;52.272;8.052;2024-01-15T16:20:43;2.30;99.90
40960;DHT22;27842;52.272;8.052;2024-01-15T16:23:08;2.30;99.90
40960;DHT22;27842;52.272;8.052;2024-01-15T16:25:34;2.30;99.90
40960;DHT22;27842;52.272;8.052;2024-01-15T16:28:04;2.30;99.90
40960;DHT22;27842;52.272;8.052;2024-01-15T16:30:30;2.30;99.90
40960;DHT22;27842;52.272;8.052;2024-01-15T16:32:55;2.30;99.90
40960;DHT22;27842;52.272;8.052;2024-01-15T16:35:21;2.30;99.90
40960;DHT22;27842;52.272;8.052;2024-01-15T16:37:46;2.30;99.90
40960;DHT22;27842;52.272;8.052;2024-01-15T16:40:12;2.20;99.90
40960;DHT22;27842;52.272;8.052;2024-01-15T16:42:38;2.20;99.90
40960;DHT22;27842;52.272;8.052;2024-01-15T16:45:04;2.30;99.90
40960;DHT22;27842;52.272;8.052;2024-01-15T16:47:30;2.20;99.90
40960;DHT22;27842;52.272;8.052;2024-01-15T16:49:55;2.20;99.90
40960;DHT22;27842;52.272;8.052;2024-01-15T16:52:21;2.20;99.90
40960;DHT22;27842;52.272;8.052;2024-01-15T16:54:47;2.10;99.90
40960;DHT22;27842;52.272;8.052;2024-01-15T16:57:16;2.10;99.90
40960;DHT22;27842;52.272;8.052;2024-01-15T16:59:41;2.10;99.90
40960;DHT22;27842;52.272;8.052;2024-01-15T17:02:07;2.00;99.90
40960;DHT22;27842;52.272;8.052;2024-01-15T17:04:33;2.00;99.90
40960;DHT22;27842;52.272;8.052;2024-01-15T17:06:59;2.00;99.90
40960;DHT22;27842;52.272;8.052;2024-01-15T17:09:25;1.90;99.90
40960;DHT22;27842;52.272;8.052;2024-01-15T17:11:50;1.90;99.90
40960;DHT22;27842;52.272;8.052;2024-01-15T17:14:16;1.90;99.90
40960;DHT22;27842;52.272;8.052;2024-01-15T17:16:43;1.90;99.90
40960;DHT22;27842;52.272;8.052;2024-01-15T17:19:09;1.90;99.90
40960;DHT22;27842;52.272;8.052;2024-01-15T17:21:36;1.90;99.90
40960;DHT22;27842;52.272;8.052;2024-01-15T17:24:02;2.00;99.90
40960;DHT22;27842;52.272;8.052;2024-01-15T17:26:28;2.00;99.90
40960;DHT22;27842;52.272;8.052;2024-01-15T17:28:54;2.00;99.90
40960;DHT22;27842;52.272;8.052;2024-01-15T17:31:20;2.00;99.90
40960;DHT22;27842;52.272;8.052;2024-01-15T17:33:46;2.00;99.90
40960;DHT22;27842;52.272;8.052;2024-01-15T17:36:12;2.00;99.90
40960;DHT22;27842;52.272;8.052;2024-01-15T17:39:05;2.10;99.90
40960;DHT22;27842;52.272;8.052;2024-01-15T17:42:28;2.10;99.90
40960;DHT22;27842;52.272;8.052;2024-01-15T17:45:35;2.00;99.90
40960;DHT22;27842;52.272;8.052;2024-01-15T17:48:01;2.00;99.90
40960;DHT22;27842;52.272;8.052;2024-01-15T17:57:29;2.10;99.90
40960;DHT22;27842;52.272;8.052;2024-01-15T17:59:54;2.10;99.90
40960;DHT22;27842;52.272;8.052;2024-01-15T18:02:20;2.10;99.90
40960;DHT22;27842;52.272;8.052;2024-01-15T18:04:46;2.10;99.90
40960;DHT22;27842;52.272;8.052;2024-01-15T18:07:11;2.10;99.90
40960;DHT22;27842;52.272;8.052;2024-01-15T18:09:37;2.10;99.90
40960;DHT22;27842;52.272;8.052;2024-01-15T18:16:02;2.10;99.90
40960;DHT22;27842;52.272;8.052;2024-01-15T18:18:28;2.10;99.90
40960;DHT22;27842;52.272;8.052;2024-01-15T18:20:54;2.10;99.90
40960;DHT22;27842;52.272;8.052;2024-01-15T18:23:20;2.10;99.90
40960;DHT22;27842;52.272;8.052;2024-01-15T18:25:45;2.10;99.90
40960;DHT22;27842;52.272;8.052;2024-01-15T18:28:11;2.10;99.90
40960;DHT22;27842;52.272;8.052;2024-01-15T18:30:39;2.10;99.90
40960;DHT22;27842;52.272;8.052;2024-01-15T18:33:05;2.10;99.90
40960;DHT22;27842;52.272;8.052;2024-01-15T18:35:33;2.10;99.90
40960;DHT22;27842;52.272;8.052;2024-01-15T18:37:58;2.10;99.90
40960;DHT22;27842;52.272;8.052;2024-01-15T18:40:24;2.10;99.90
40960;DHT22;27842;52.272;8.052;2024-01-15T18:42:49;2.10;99.90
40960;DHT22;27842;52.272;8.052;2024-01-15T18:45:15;2.10;99.90
40960;DHT22;27842;52.272;8.052;2024-01-15T18:47:42;2.10;99.90
40960;DHT22;27842;52.272;8.052;2024-01-15T18:50:08;2.10;99.90
40960;DHT22;27842;52.272;8.052;2024-01-15T18:52:34;2.10;99.90
40960;DHT22;27842;52.272;8.052;2024-01-15T18:55:00;2.10;99.90
40960;DHT22;27842;52.272;8.052;2024-01-15T18:57:26;2.10;99.90
40960;DHT22;27842;52.272;8.052;2024-01-15T18:59:51;2.10;99.90
40960;DHT22;27842;52.272;8.052;2024-01-15T19:02:17;2.10;99.90
40960;DHT22;27842;52.272;8.052;2024-01-15T19:04:42;2.10;99.90
40960;DHT22;27842;52.272;8.052;2024-01-15T19:07:08;2.10;99.90
40960;DHT22;27842;52.272;8.052;2024-01-15T19:09:34;2.10;99.90
40960;DHT22;27842;52.272;8.052;2024-01-15T19:11:59;2.10;99.90
40960;DHT22;27842;52.272;8.052;2024-01-15T19:14:25;2.10;99.90
40960;DHT22;27842;52.272;8.052;2024-01-15T19:16:50;2.10;99.90
40960;DHT22;27842;52.272;8.052;2024-01-15T19:19:16;2.10;99.90
40960;DHT22;27842;52.272;8.052;2024-01-15T19:21:42;2.10;99.90
40960;DHT22;27842;52.272;8.052;2024-01-15T19:24:08;2.10;99.90
40960;DHT22;27842;52.272;8.052;2024-01-15T19:26:34;2.10;99.90
40960;DHT22;27842;52.272;8.052;2024-01-15T19:28:59;2.10;99.90
40960;DHT22;27842;52.272;8.052;2024-01-15T19:31:25;2.10;99.90
40960;DHT22;27842;52.272;8.052;2024-01-15T19:33:51;2.10;99.90
